Time;durP1;ratioP1;P1;durP2;ratioP2;P2;SDS_P1;SDS_P2;PMS_P1;PMS_P2;Temp;Humidity;BMP_temperature;BMP_pressure;BME280_temperature;BME280_humidity;BME280_pressure;Samples;Min_cycle;Max_cycle;Signal;HPM_P1;HPM_P2
2022/10/26 00:01:07;;;;;;;35.20;27.15;;;;;;;;;;5026017;28;20033;-76
2022/10/26 00:03:34;;;;;;;33.83;25.95;;;;;;;;;;5018475;28;20033;-76
2022/10/26 00:06:19;;;;;;;31.75;25.17;;;;;;;;;;5032985;28;20033;-76
2022/10/26 00:08:45;;;;;;;34.55;25.55;;;;;;;;;;5018261;28;20388;-76
2022/10/26 00:11:12;;;;;;;31.00;22.98;;;;;;;;;;5019390;28;20033;-76
2022/10/26 00:13:39;;;;;;;35.60;25.40;;;;;;;;;;5019182;28;20030;-76
2022/10/26 00:16:07;;;;;;;35.75;27.83;;;;;;;;;;5013969;28;20700;-76
2022/10/26 00:18:33;;;;;;;50.90;31.23;;;;;;;;;;5023002;28;20900;-75
2022/10/26 00:21:03;;;;;;;51.42;35.55;;;;;;;;;;5023860;28;20033;-76
2022/10/26 00:23:30;;;;;;;49.42;33.35;;;;;;;;;;5032207;28;20052;-76
2022/10/26 00:25:56;;;;;;;43.17;31.23;;;;;;;;;;5032224;28;20025;-76
2022/10/26 00:28:22;;;;;;;44.65;30.83;;;;;;;;;;5028157;28;20199;-76
2022/10/26 00:30:48;;;;;;;48.03;34.40;;;;;;;;;;5022115;28;20480;-76
2022/10/26 00:33:14;;;;;;;49.75;34.13;;;;;;;;;;5024415;28;20061;-76
2022/10/26 00:35:40;;;;;;;47.95;32.88;;;;;;;;;;5030272;28;20090;-76
2022/10/26 00:38:06;;;;;;;52.30;32.80;;;;;;;;;;5020799;28;20382;-76
2022/10/26 00:40:32;;;;;;;53.90;35.03;;;;;;;;;;5014206;28;20026;-76
2022/10/26 00:43:00;;;;;;;58.08;37.65;;;;;;;;;;5030674;28;20034;-76
2022/10/26 00:45:27;;;;;;;51.63;34.53;;;;;;;;;;5032250;28;20060;-76
2022/10/26 00:47:56;;;;;;;42.25;28.10;;;;;;;;;;5034087;28;20806;-76
2022/10/26 00:50:24;;;;;;;45.72;29.33;;;;;;;;;;5044143;28;20108;-76
2022/10/26 00:52:52;;;;;;;41.42;26.48;;;;;;;;;;5030994;28;20061;-76
2022/10/26 00:55:21;;;;;;;44.15;29.83;;;;;;;;;;5024910;28;20036;-76
2022/10/26 00:57:47;;;;;;;46.95;29.95;;;;;;;;;;5030540;28;20057;-76
2022/10/26 01:00:13;;;;;;;43.30;28.88;;;;;;;;;;5014381;28;20022;-76
2022/10/26 01:02:39;;;;;;;53.92;32.22;;;;;;;;;;5023677;28;20466;-76
2022/10/26 01:05:06;;;;;;;42.08;27.67;;;;;;;;;;5029702;28;20076;-76
2022/10/26 01:07:32;;;;;;;45.88;29.58;;;;;;;;;;5034954;28;20033;-76
2022/10/26 01:09:59;;;;;;;55.33;32.42;;;;;;;;;;5020380;28;20116;-76
2022/10/26 01:12:25;;;;;;;47.38;30.13;;;;;;;;;;5047784;28;20033;-75
2022/10/26 01:14:51;;;;;;;50.47;29.70;;;;;;;;;;5031194;28;20025;-76
2022/10/26 01:17:20;;;;;;;48.13;29.67;;;;;;;;;;5034037;28;20399;-76
2022/10/26 01:19:48;;;;;;;42.00;28.40;;;;;;;;;;5018246;28;20481;-76
2022/10/26 01:22:22;;;;;;;47.05;33.45;;;;;;;;;;5029883;28;20112;-76
2022/10/26 01:25:03;;;;;;;41.80;29.70;;;;;;;;;;5030559;28;20025;-76
2022/10/26 01:27:40;;;;;;;39.35;27.45;;;;;;;;;;5039010;28;20045;-76
2022/10/26 01:30:26;;;;;;;37.17;27.63;;;;;;;;;;5033823;28;20056;-76
2022/10/26 01:32:52;;;;;;;40.83;30.27;;;;;;;;;;5036410;28;20044;-76
2022/10/26 01:35:21;;;;;;;36.13;27.33;;;;;;;;;;5025532;28;20080;-76
2022/10/26 01:37:58;;;;;;;37.08;27.80;;;;;;;;;;5024962;28;20036;-76
2022/10/26 01:40:24;;;;;;;40.30;28.08;;;;;;;;;;5012264;28;20105;-76
2022/10/26 01:42:52;;;;;;;39.25;28.35;;;;;;;;;;5015723;28;20117;-76
2022/10/26 01:45:18;;;;;;;42.25;29.83;;;;;;;;;;5012016;28;20658;-76
2022/10/26 01:47:45;;;;;;;46.80;31.67;;;;;;;;;;5028651;28;20030;-76
2022/10/26 01:50:11;;;;;;;42.75;30.38;;;;;;;;;;5038250;28;20103;-76
2022/10/26 01:52:37;;;;;;;42.65;27.80;;;;;;;;;;5035359;28;20040;-76
2022/10/26 01:55:26;;;;;;;40.88;30.42;;;;;;;;;;5015610;28;20056;-76
2022/10/26 01:57:53;;;;;;;42.80;29.58;;;;;;;;;;5028039;28;20026;-76
2022/10/26 02:00:19;;;;;;;38.22;27.40;;;;;;;;;;5020478;28;20538;-76
2022/10/26 02:02:45;;;;;;;41.50;28.90;;;;;;;;;;5016121;28;20056;-76
2022/10/26 02:05:15;;;;;;;43.97;28.65;;;;;;;;;;5023372;28;20679;-76
2022/10/26 02:07:56;;;;;;;46.85;28.65;;;;;;;;;;5036401;28;20488;-76
2022/10/26 02:10:30;;;;;;;42.55;29.33;;;;;;;;;;5011997;28;20349;-76
2022/10/26 02:12:59;;;;;;;48.45;32.38;;;;;;;;;;5032316;28;20034;-76
2022/10/26 02:15:31;;;;;;;52.08;34.45;;;;;;;;;;5031501;28;20034;-76
2022/10/26 02:18:03;;;;;;;55.03;35.80;;;;;;;;;;5008526;28;20040;-76
2022/10/26 02:20:34;;;;;;;58.90;34.33;;;;;;;;;;5029718;28;20025;-76
2022/10/26 02:23:01;;;;;;;49.83;32.78;;;;;;;;;;5017766;28;20034;-76
2022/10/26 02:25:30;;;;;;;55.22;35.58;;;;;;;;;;5025032;28;20691;-76
2022/10/26 02:27:59;;;;;;;59.33;37.80;;;;;;;;;;5027447;28;20060;-76
2022/10/26 02:30:25;;;;;;;56.33;36.42;;;;;;;;;;5024162;28;20029;-76
2022/10/26 02:32:52;;;;;;;59.38;38.53;;;;;;;;;;5040816;28;20094;-76
2022/10/26 02:35:20;;;;;;;64.35;41.97;;;;;;;;;;5020676;28;20045;-76
2022/10/26 02:37:47;;;;;;;44.33;30.13;;;;;;;;;;5016491;28;20480;-76
2022/10/26 02:40:16;;;;;;;51.60;34.38;;;;;;;;;;5036359;28;20753;-76
2022/10/26 02:42:43;;;;;;;39.10;25.85;;;;;;;;;;5029683;28;20037;-77
2022/10/26 02:45:11;;;;;;;36.13;24.77;;;;;;;;;;4999476;28;20029;-76
2022/10/26 02:47:37;;;;;;;29.15;18.95;;;;;;;;;;5011911;28;20061;-76
2022/10/26 02:50:04;;;;;;;30.05;20.42;;;;;;;;;;5025755;28;20721;-76
2022/10/26 02:52:50;;;;;;;24.80;18.52;;;;;;;;;;5033055;28;20565;-76
2022/10/26 02:55:20;;;;;;;28.90;18.88;;;;;;;;;;5028596;28;20029;-76
2022/10/26 02:57:49;;;;;;;34.08;21.23;;;;;;;;;;5024726;28;20061;-76
2022/10/26 03:00:16;;;;;;;32.95;23.85;;;;;;;;;;5025322;28;20084;-76
2022/10/26 03:02:43;;;;;;;25.25;15.95;;;;;;;;;;5021068;28;20108;-76
2022/10/26 03:05:13;;;;;;;17.33;9.45;;;;;;;;;;5035610;28;20083;-76
2022/10/26 03:07:39;;;;;;;14.88;9.10;;;;;;;;;;5028449;28;20092;-76
2022/10/26 03:10:05;;;;;;;14.90;7.03;;;;;;;;;;5019111;28;20548;-76
2022/10/26 03:12:31;;;;;;;19.58;10.02;;;;;;;;;;5017974;28;20038;-76
2022/10/26 03:14:57;;;;;;;21.30;12.70;;;;;;;;;;5022592;28;20030;-76
2022/10/26 03:17:23;;;;;;;25.15;13.65;;;;;;;;;;5024264;28;20097;-76
2022/10/26 03:19:49;;;;;;;27.55;14.70;;;;;;;;;;5030456;28;20116;-76
2022/10/26 03:22:15;;;;;;;23.70;14.25;;;;;;;;;;5028459;28;20140;-76
2022/10/26 03:24:41;;;;;;;21.08;13.88;;;;;;;;;;5037136;28;20037;-75
2022/10/26 03:27:07;;;;;;;26.27;12.90;;;;;;;;;;5012756;28;20046;-76
2022/10/26 03:29:33;;;;;;;21.20;13.50;;;;;;;;;;5026088;28;20112;-76
2022/10/26 03:31:59;;;;;;;23.95;14.57;;;;;;;;;;5028431;28;20479;-76
2022/10/26 03:34:25;;;;;;;19.60;14.13;;;;;;;;;;5025573;28;20021;-76
2022/10/26 03:36:51;;;;;;;13.23;9.25;;;;;;;;;;5030312;28;20087;-76
2022/10/26 03:39:17;;;;;;;16.55;6.47;;;;;;;;;;5009449;28;20105;-76
2022/10/26 03:41:43;;;;;;;21.08;10.88;;;;;;;;;;5024352;28;20152;-76
2022/10/26 03:44:09;;;;;;;18.90;11.55;;;;;;;;;;5035066;28;20029;-76
2022/10/26 03:46:35;;;;;;;23.73;13.77;;;;;;;;;;5041656;28;20041;-76
2022/10/26 03:49:01;;;;;;;21.77;11.38;;;;;;;;;;5025313;28;20034;-77
2022/10/26 03:51:27;;;;;;;16.55;10.18;;;;;;;;;;5022367;28;20104;-76
2022/10/26 03:53:53;;;;;;;17.92;11.38;;;;;;;;;;5027357;28;20057;-76
2022/10/26 03:56:19;;;;;;;21.80;9.88;;;;;;;;;;5032694;28;20096;-76
2022/10/26 03:58:45;;;;;;;17.67;6.60;;;;;;;;;;5035430;28;20029;-76
2022/10/26 04:01:11;;;;;;;13.60;4.68;;;;;;;;;;5042321;28;20045;-76
2022/10/26 04:03:37;;;;;;;16.55;3.63;;;;;;;;;;5027711;28;20037;-76
2022/10/26 04:06:03;;;;;;;9.38;3.00;;;;;;;;;;5019594;28;20037;-76
2022/10/26 04:08:29;;;;;;;9.13;3.67;;;;;;;;;;5031409;28;20708;-76
2022/10/26 04:10:55;;;;;;;12.80;6.18;;;;;;;;;;5014858;28;20079;-76
2022/10/26 04:13:21;;;;;;;18.05;6.35;;;;;;;;;;5024648;28;20072;-76
2022/10/26 04:15:47;;;;;;;14.00;5.63;;;;;;;;;;5032708;28;20077;-76
2022/10/26 04:18:13;;;;;;;14.18;6.38;;;;;;;;;;5016594;28;20511;-76
2022/10/26 04:20:43;;;;;;;15.38;5.78;;;;;;;;;;5024134;28;20560;-76
2022/10/26 04:23:13;;;;;;;17.48;7.25;;;;;;;;;;5037187;28;20037;-76
2022/10/26 04:25:40;;;;;;;14.38;6.68;;;;;;;;;;5032451;28;20073;-76
2022/10/26 04:28:06;;;;;;;18.40;7.13;;;;;;;;;;5012693;28;20033;-76
2022/10/26 04:30:33;;;;;;;11.18;6.38;;;;;;;;;;5032513;28;20033;-76
2022/10/26 04:32:59;;;;;;;10.40;6.00;;;;;;;;;;5019366;28;20056;-76
2022/10/26 04:35:26;;;;;;;15.45;6.35;;;;;;;;;;5009905;28;20069;-76
2022/10/26 04:37:56;;;;;;;19.02;6.22;;;;;;;;;;5018382;28;20101;-76
2022/10/26 04:40:22;;;;;;;16.98;6.50;;;;;;;;;;5032845;28;20037;-76
2022/10/26 04:42:48;;;;;;;19.70;7.18;;;;;;;;;;5032945;28;20030;-76
2022/10/26 04:45:15;;;;;;;20.42;6.90;;;;;;;;;;5005038;28;20393;-76
2022/10/26 04:47:41;;;;;;;17.42;6.18;;;;;;;;;;5032170;28;20033;-76
2022/10/26 04:50:08;;;;;;;20.83;6.10;;;;;;;;;;5027557;28;20036;-76
2022/10/26 04:52:35;;;;;;;16.17;6.50;;;;;;;;;;5032341;28;20068;-76
2022/10/26 04:55:04;;;;;;;18.70;6.75;;;;;;;;;;5009744;28;20041;-76
2022/10/26 04:57:30;;;;;;;11.30;5.63;;;;;;;;;;5031830;28;20038;-76
2022/10/26 04:59:56;;;;;;;20.00;7.60;;;;;;;;;;5013358;28;20037;-76
2022/10/26 05:02:22;;;;;;;16.08;6.05;;;;;;;;;;5031045;28;20030;-76
2022/10/26 05:04:48;;;;;;;16.02;7.00;;;;;;;;;;5042128;28;20033;-76
2022/10/26 05:07:14;;;;;;;14.25;6.47;;;;;;;;;;5015608;28;20541;-76
2022/10/26 05:09:40;;;;;;;21.30;6.45;;;;;;;;;;5022040;28;20124;-76
2022/10/26 05:12:06;;;;;;;12.05;4.68;;;;;;;;;;5031933;28;20121;-76
2022/10/26 05:14:32;;;;;;;9.73;2.80;;;;;;;;;;5015893;28;20865;-76
2022/10/26 05:16:58;;;;;;;11.90;2.50;;;;;;;;;;5024809;28;20053;-76
2022/10/26 05:19:24;;;;;;;8.88;3.03;;;;;;;;;;5012896;28;20111;-76
2022/10/26 05:21:52;;;;;;;19.60;5.20;;;;;;;;;;5018892;28;20120;-76
2022/10/26 05:24:18;;;;;;;21.27;6.95;;;;;;;;;;5019561;28;20025;-76
2022/10/26 05:26:44;;;;;;;15.38;5.45;;;;;;;;;;5021416;28;20052;-76
2022/10/26 05:29:10;;;;;;;14.60;5.47;;;;;;;;;;5013525;28;20468;-76
2022/10/26 05:31:36;;;;;;;18.98;4.78;;;;;;;;;;5028512;28;20083;-76
2022/10/26 05:34:02;;;;;;;12.60;3.22;;;;;;;;;;5005542;28;20484;-76
2022/10/26 05:36:28;;;;;;;10.43;2.70;;;;;;;;;;5019817;28;20362;-76
2022/10/26 05:38:57;;;;;;;11.32;3.08;;;;;;;;;;5030480;28;20037;-80
2022/10/26 05:41:23;;;;;;;10.68;3.45;;;;;;;;;;5032212;28;20120;-78
2022/10/26 05:43:49;;;;;;;12.30;3.92;;;;;;;;;;5004386;28;20452;-75
2022/10/26 05:46:15;;;;;;;11.10;3.35;;;;;;;;;;5023280;28;20103;-75
2022/10/26 05:48:41;;;;;;;12.68;4.70;;;;;;;;;;5033005;28;20686;-76
2022/10/26 05:51:07;;;;;;;11.15;4.50;;;;;;;;;;5019896;28;20132;-76
2022/10/26 05:53:33;;;;;;;13.45;4.57;;;;;;;;;;5019902;28;20132;-76
2022/10/26 05:55:59;;;;;;;20.08;6.60;;;;;;;;;;5016537;28;20069;-75
2022/10/26 05:58:25;;;;;;;12.65;5.85;;;;;;;;;;5035896;28;20781;-75
2022/10/26 06:00:51;;;;;;;17.58;6.03;;;;;;;;;;5031096;28;20040;-76
2022/10/26 06:03:26;;;;;;;17.23;4.40;;;;;;;;;;5020567;28;20037;-76
2022/10/26 06:05:54;;;;;;;19.50;4.60;;;;;;;;;;5029007;28;20052;-76
2022/10/26 06:08:21;;;;;;;13.35;3.60;;;;;;;;;;5027896;28;20044;-76
2022/10/26 06:10:47;;;;;;;15.50;4.28;;;;;;;;;;5030362;28;20033;-76
2022/10/26 06:13:13;;;;;;;19.23;5.78;;;;;;;;;;5021087;28;20728;-76
2022/10/26 06:15:48;;;;;;;14.48;6.97;;;;;;;;;;5026962;28;20059;-75
2022/10/26 06:18:24;;;;;;;17.42;5.40;;;;;;;;;;5014605;28;20072;-76
2022/10/26 06:21:04;;;;;;;14.57;6.18;;;;;;;;;;5024557;28;20036;-75
2022/10/26 06:23:43;;;;;;;13.48;5.03;;;;;;;;;;5032849;28;20075;-76
2022/10/26 06:26:21;;;;;;;16.33;5.28;;;;;;;;;;5021912;28;20786;-75
2022/10/26 06:29:00;;;;;;;16.27;4.93;;;;;;;;;;5029752;28;20056;-76
2022/10/26 06:31:26;;;;;;;14.50;4.28;;;;;;;;;;5029976;28;20116;-76
2022/10/26 06:33:57;;;;;;;14.02;4.03;;;;;;;;;;5027036;28;20460;-76
2022/10/26 06:36:25;;;;;;;14.50;3.58;;;;;;;;;;5030198;28;20076;-76
2022/10/26 06:38:54;;;;;;;18.33;4.80;;;;;;;;;;5029831;28;20030;-76
2022/10/26 06:41:21;;;;;;;13.80;5.18;;;;;;;;;;5029742;28;20038;-76
2022/10/26 06:43:47;;;;;;;14.85;5.97;;;;;;;;;;5028955;28;20045;-75
2022/10/26 06:46:19;;;;;;;14.50;6.60;;;;;;;;;;5029593;28;20048;-76
2022/10/26 06:49:04;;;;;;;17.10;6.80;;;;;;;;;;5031704;28;20096;-76
2022/10/26 06:51:30;;;;;;;20.80;5.85;;;;;;;;;;5021982;28;20033;-76
2022/10/26 06:54:13;;;;;;;16.65;6.28;;;;;;;;;;5022377;28;20025;-75
2022/10/26 06:56:40;;;;;;;17.58;5.85;;;;;;;;;;5022803;28;20036;-75
2022/10/26 06:59:14;;;;;;;19.58;3.35;;;;;;;;;;5031182;28;20034;-75
2022/10/26 07:01:40;;;;;;;9.60;2.88;;;;;;;;;;5038240;28;20404;-76
2022/10/26 07:04:06;;;;;;;19.23;3.72;;;;;;;;;;5037856;28;20080;-76
2022/10/26 07:06:32;;;;;;;13.63;4.60;;;;;;;;;;5022840;28;20041;-76
2022/10/26 07:08:58;;;;;;;18.10;4.40;;;;;;;;;;5040018;28;20079;-76
2022/10/26 07:11:24;;;;;;;19.83;6.25;;;;;;;;;;5020830;28;20537;-76
2022/10/26 07:13:50;;;;;;;26.05;5.50;;;;;;;;;;5033509;28;20096;-76
2022/10/26 07:16:16;;;;;;;19.45;5.68;;;;;;;;;;5035491;28;20057;-76
2022/10/26 07:18:42;;;;;;;19.55;5.53;;;;;;;;;;5022304;28;20041;-76
2022/10/26 07:21:09;;;;;;;20.05;5.57;;;;;;;;;;5014853;28;20045;-76
2022/10/26 07:23:35;;;;;;;17.50;5.45;;;;;;;;;;5021532;28;20025;-76
2022/10/26 07:26:01;;;;;;;19.27;4.93;;;;;;;;;;5032788;28;20037;-75
2022/10/26 07:28:27;;;;;;;23.70;5.88;;;;;;;;;;5028867;28;20112;-75
2022/10/26 07:30:53;;;;;;;20.00;5.13;;;;;;;;;;5027968;28;20495;-76
2022/10/26 07:33:20;;;;;;;17.45;4.13;;;;;;;;;;5041489;28;20059;-76
2022/10/26 07:35:45;;;;;;;15.82;2.88;;;;;;;;;;5032435;28;20120;-76
2022/10/26 07:38:12;;;;;;;13.23;3.45;;;;;;;;;;5033160;28;20141;-76
2022/10/26 07:40:38;;;;;;;15.38;4.43;;;;;;;;;;5019585;28;20021;-76
2022/10/26 07:43:04;;;;;;;13.55;4.53;;;;;;;;;;5024622;28;20559;-75
2022/10/26 07:45:30;;;;;;;15.85;4.82;;;;;;;;;;5023035;28;20064;-75
2022/10/26 07:47:56;;;;;;;17.42;5.65;;;;;;;;;;5018190;28;20037;-75
2022/10/26 07:50:22;;;;;;;13.85;4.35;;;;;;;;;;5018037;28;20026;-75
2022/10/26 07:52:49;;;;;;;14.30;4.75;;;;;;;;;;5033551;28;20412;-75
2022/10/26 07:55:15;;;;;;;9.80;3.22;;;;;;;;;;5034020;28;20073;-75
2022/10/26 07:57:41;;;;;;;13.73;3.20;;;;;;;;;;5027784;28;20392;-75
2022/10/26 08:00:07;;;;;;;13.50;3.55;;;;;;;;;;5022389;28;20034;-75
2022/10/26 08:02:34;;;;;;;14.25;3.75;;;;;;;;;;5023302;28;20080;-75
2022/10/26 08:05:00;;;;;;;16.13;3.65;;;;;;;;;;5025660;28;20073;-75
2022/10/26 08:07:26;;;;;;;20.27;5.07;;;;;;;;;;5029404;28;20098;-75
2022/10/26 08:09:52;;;;;;;19.52;5.20;;;;;;;;;;5028402;28;20032;-76
2022/10/26 08:12:19;;;;;;;17.77;3.95;;;;;;;;;;5021908;28;20065;-75
2022/10/26 08:14:45;;;;;;;14.10;4.93;;;;;;;;;;5031867;28;20462;-75
2022/10/26 08:17:11;;;;;;;17.35;4.30;;;;;;;;;;5030733;28;20053;-75
2022/10/26 08:19:37;;;;;;;20.80;3.95;;;;;;;;;;5036348;28;20113;-76
2022/10/26 08:22:03;;;;;;;17.17;3.38;;;;;;;;;;5025805;28;20076;-76
2022/10/26 08:24:29;;;;;;;18.17;5.15;;;;;;;;;;5017816;28;20025;-75
2022/10/26 08:26:55;;;;;;;21.92;5.05;;;;;;;;;;5024647;28;20037;-75
2022/10/26 08:29:21;;;;;;;16.10;4.43;;;;;;;;;;5018643;28;20092;-76
2022/10/26 08:31:47;;;;;;;26.73;4.70;;;;;;;;;;5019918;28;20084;-75
2022/10/26 08:34:14;;;;;;;9.73;3.17;;;;;;;;;;5026543;28;20456;-75
2022/10/26 08:36:40;;;;;;;18.88;4.15;;;;;;;;;;5022632;28;20041;-75
2022/10/26 08:39:05;;;;;;;14.90;3.95;;;;;;;;;;5032186;28;20025;-75
2022/10/26 08:41:41;;;;;;;13.52;3.42;;;;;;;;;;5029120;28;20037;-75
2022/10/26 08:44:13;;;;;;;23.45;4.07;;;;;;;;;;5018075;28;20030;-75
2022/10/26 08:46:40;;;;;;;16.75;4.65;;;;;;;;;;5026398;28;20129;-76
2022/10/26 08:49:17;;;;;;;14.75;4.43;;;;;;;;;;5035920;28;20037;-76
2022/10/26 08:51:43;;;;;;;16.95;4.38;;;;;;;;;;5017993;28;20117;-76
2022/10/26 08:54:39;;;;;;;12.65;3.92;;;;;;;;;;5030922;28;20025;-76
2022/10/26 08:57:20;;;;;;;14.63;3.88;;;;;;;;;;5008415;28;20045;-76
2022/10/26 08:59:49;;;;;;;18.50;4.13;;;;;;;;;;5028852;28;20045;-76
2022/10/26 09:02:16;;;;;;;16.02;4.60;;;;;;;;;;5023101;28;20041;-76
2022/10/26 09:04:43;;;;;;;17.67;3.95;;;;;;;;;;5027763;28;20096;-76
2022/10/26 09:07:09;;;;;;;14.02;3.58;;;;;;;;;;5023349;28;20032;-76
2022/10/26 09:09:41;;;;;;;12.02;3.83;;;;;;;;;;5031756;28;20041;-76
2022/10/26 09:12:06;;;;;;;;;;;;;;;;;;5026154;28;20579;-76
2022/10/26 09:14:39;;;;;;;17.70;3.78;;;;;;;;;;5027186;28;20006;-75
2022/10/26 09:17:13;;;;;;;13.40;2.88;;;;;;;;;;5016732;28;20061;-76
2022/10/26 09:19:57;;;;;;;18.33;3.15;;;;;;;;;;5029805;28;20042;-76
2022/10/26 09:22:45;;;;;;;13.55;3.40;;;;;;;;;;5034067;28;20029;-76
2022/10/26 09:25:18;;;;;;;10.65;2.90;;;;;;;;;;5027282;28;20037;-76
2022/10/26 09:27:46;;;;;;;33.88;5.15;;;;;;;;;;5025503;28;21045;-76
2022/10/26 09:30:14;;;;;;;15.43;3.67;;;;;;;;;;5025393;28;20033;-76
2022/10/26 09:32:43;;;;;;;15.45;4.80;;;;;;;;;;5024840;28;20469;-76
2022/10/26 09:35:15;;;;;;;20.33;3.88;;;;;;;;;;5019319;28;20029;-76
2022/10/26 09:37:45;;;;;;;21.42;4.35;;;;;;;;;;5039698;28;20033;-76
2022/10/26 09:40:21;;;;;;;25.88;4.15;;;;;;;;;;5020805;28;20108;-76
2022/10/26 09:43:10;;;;;;;14.40;3.60;;;;;;;;;;5027398;28;20037;-76
2022/10/26 09:45:37;;;;;;;16.02;3.63;;;;;;;;;;5026342;28;20428;-76
2022/10/26 09:48:10;;;;;;;18.45;4.00;;;;;;;;;;5028197;28;20116;-76
2022/10/26 09:50:36;;;;;;;18.83;4.18;;;;;;;;;;5030239;28;20026;-76
2022/10/26 09:53:03;;;;;;;12.02;3.42;;;;;;;;;;5042990;28;20041;-76
2022/10/26 09:55:30;;;;;;;18.50;4.28;;;;;;;;;;5035770;28;20471;-76
2022/10/26 09:57:58;;;;;;;15.50;3.70;;;;;;;;;;5041469;28;20148;-76
2022/10/26 10:00:25;;;;;;;12.00;2.83;;;;;;;;;;5031018;28;20075;-76
2022/10/26 10:02:53;;;;;;;12.15;3.03;;;;;;;;;;5029713;28;20497;-76
2022/10/26 10:05:32;;;;;;;15.82;3.80;;;;;;;;;;5023146;28;20062;-76
2022/10/26 10:08:15;;;;;;;14.77;3.13;;;;;;;;;;5023976;28;20121;-76
2022/10/26 10:11:00;;;;;;;14.93;3.00;;;;;;;;;;5033460;28;20421;-75
2022/10/26 10:13:28;;;;;;;10.63;2.30;;;;;;;;;;5025478;28;20056;-76
2022/10/26 10:15:55;;;;;;;16.88;3.70;;;;;;;;;;5027406;28;20121;-76
2022/10/26 10:18:22;;;;;;;10.70;2.63;;;;;;;;;;5028487;28;20882;-76
2022/10/26 10:20:53;;;;;;;15.90;3.03;;;;;;;;;;5022759;28;20464;-76
2022/10/26 10:23:30;;;;;;;12.77;3.78;;;;;;;;;;5027526;28;20051;-75
2022/10/26 10:26:04;;;;;;;15.07;4.22;;;;;;;;;;5030893;28;20042;-76
2022/10/26 10:28:30;;;;;;;20.33;3.70;;;;;;;;;;5027112;28;20065;-76
2022/10/26 10:31:00;;;;;;;14.00;3.15;;;;;;;;;;5029789;28;20045;-76
2022/10/26 10:33:34;;;;;;;13.95;2.83;;;;;;;;;;5030677;28;20048;-76
2022/10/26 10:36:00;;;;;;;17.60;3.22;;;;;;;;;;5013161;28;20127;-76
2022/10/26 10:38:26;;;;;;;18.77;4.07;;;;;;;;;;5022244;28;20041;-76
2022/10/26 10:40:57;;;;;;;14.15;3.33;;;;;;;;;;5028232;28;20034;-76
2022/10/26 10:43:23;;;;;;;15.57;3.15;;;;;;;;;;5029642;28;20025;-76
2022/10/26 10:45:51;;;;;;;12.82;3.10;;;;;;;;;;5030149;28;20043;-76
2022/10/26 10:48:37;;;;;;;16.08;3.15;;;;;;;;;;5036899;28;20043;-76
2022/10/26 10:51:11;;;;;;;12.48;2.83;;;;;;;;;;5021861;28;20041;-76
2022/10/26 10:53:42;;;;;;;12.93;2.83;;;;;;;;;;5021444;28;20021;-76
2022/10/26 10:56:27;;;;;;;13.60;3.08;;;;;;;;;;5028892;28;20053;-76
2022/10/26 10:58:53;;;;;;;15.80;3.83;;;;;;;;;;5025321;28;20040;-76
2022/10/26 11:01:22;;;;;;;10.55;2.63;;;;;;;;;;5032065;28;20041;-76
2022/10/26 11:03:48;;;;;;;20.75;2.47;;;;;;;;;;5035807;28;20029;-76
2022/10/26 11:06:19;;;;;;;23.95;3.55;;;;;;;;;;5024398;28;20354;-76
2022/10/26 11:09:07;;;;;;;10.60;2.90;;;;;;;;;;5023122;28;20030;-77
2022/10/26 11:11:35;;;;;;;13.30;2.80;;;;;;;;;;5030253;28;20076;-76
2022/10/26 11:14:04;;;;;;;19.75;2.97;;;;;;;;;;5028301;28;20049;-76
2022/10/26 11:16:33;;;;;;;8.55;2.55;;;;;;;;;;5022969;28;20049;-76
2022/10/26 11:19:17;;;;;;;16.23;2.97;;;;;;;;;;5030041;28;20391;-76
2022/10/26 11:21:45;;;;;;;18.75;4.45;;;;;;;;;;5026788;28;20034;-76
2022/10/26 11:24:21;;;;;;;23.70;3.05;;;;;;;;;;5027446;28;20718;-76
2022/10/26 11:26:54;;;;;;;12.50;2.35;;;;;;;;;;5025440;28;20104;-76
2022/10/26 11:29:29;;;;;;;13.15;2.30;;;;;;;;;;5026837;28;20037;-76
2022/10/26 11:32:01;;;;;;;11.23;2.55;;;;;;;;;;5017097;28;20030;-76
2022/10/26 11:34:37;;;;;;;18.50;4.10;;;;;;;;;;5024689;28;20045;-76
2022/10/26 11:37:06;;;;;;;13.20;2.97;;;;;;;;;;5029366;28;20103;-76
2022/10/26 11:39:43;;;;;;;12.07;2.75;;;;;;;;;;5027244;28;20030;-76
2022/10/26 11:42:15;;;;;;;18.25;4.45;;;;;;;;;;5021170;28;20440;-76
2022/10/26 11:44:41;;;;;;;;;;;;;;;;;;5025381;28;20029;-76
2022/10/26 11:47:13;;;;;;;16.75;2.70;;;;;;;;;;5020599;28;20288;-76
2022/10/26 11:49:48;;;;;;;16.30;2.83;;;;;;;;;;5021214;28;20084;-76
2022/10/26 11:52:17;;;;;;;19.35;3.33;;;;;;;;;;5034247;28;20047;-76
2022/10/26 11:54:52;;;;;;;11.85;2.53;;;;;;;;;;5017035;28;20060;-76
2022/10/26 11:57:19;;;;;;;12.57;2.90;;;;;;;;;;5026984;28;20361;-76
2022/10/26 11:59:57;;;;;;;10.45;2.22;;;;;;;;;;5027549;28;20080;-75
2022/10/26 12:02:24;;;;;;;10.05;2.33;;;;;;;;;;5024049;28;20033;-76
2022/10/26 12:05:16;;;;;;;13.73;3.35;;;;;;;;;;5026051;28;20034;-76
2022/10/26 12:07:46;;;;;;;14.98;2.95;;;;;;;;;;5019410;28;20080;-77
2022/10/26 12:10:38;;;;;;;14.30;2.88;;;;;;;;;;5026599;28;20099;-76
2022/10/26 12:13:13;;;;;;;10.85;2.55;;;;;;;;;;5024488;28;20531;-76
2022/10/26 12:15:39;;;;;;;16.02;3.63;;;;;;;;;;5021288;28;20048;-76
2022/10/26 12:18:17;;;;;;;19.85;3.35;;;;;;;;;;5029329;28;20034;-76
2022/10/26 12:20:50;;;;;;;11.68;2.95;;;;;;;;;;5018959;28;20514;-76
2022/10/26 12:23:16;;;;;;;10.88;2.20;;;;;;;;;;5022413;28;20041;-77
2022/10/26 12:25:42;;;;;;;13.93;2.67;;;;;;;;;;5021860;28;20037;-77
2022/10/26 12:28:32;;;;;;;15.88;3.38;;;;;;;;;;5024073;28;20025;-76
2022/10/26 12:31:17;;;;;;;17.58;3.72;;;;;;;;;;5016609;28;20201;-76
2022/10/26 12:33:50;;;;;;;12.70;2.65;;;;;;;;;;5028642;28;20793;-76
2022/10/26 12:36:35;;;;;;;19.45;3.50;;;;;;;;;;5036303;28;20041;-76
2022/10/26 12:39:01;;;;;;;15.80;3.03;;;;;;;;;;5032745;28;20447;-76
2022/10/26 12:41:27;;;;;;;21.50;3.10;;;;;;;;;;5028329;28;20613;-76
2022/10/26 12:43:57;;;;;;;15.98;3.60;;;;;;;;;;5028553;28;20112;-77
2022/10/26 12:46:26;;;;;;;14.30;3.60;;;;;;;;;;5037873;28;20057;-76
2022/10/26 12:48:52;;;;;;;14.32;2.78;;;;;;;;;;5031733;28;20057;-75
2022/10/26 12:51:24;;;;;;;15.65;2.70;;;;;;;;;;5033019;28;20041;-76
2022/10/26 12:53:56;;;;;;;14.98;2.60;;;;;;;;;;5024093;28;20370;-76
2022/10/26 12:56:26;;;;;;;9.57;2.33;;;;;;;;;;5035812;28;20111;-76
2022/10/26 12:58:59;;;;;;;15.10;2.80;;;;;;;;;;5027122;28;20092;-76
2022/10/26 13:01:31;;;;;;;17.85;2.97;;;;;;;;;;5032624;28;20112;-75
2022/10/26 13:04:06;;;;;;;16.00;3.05;;;;;;;;;;5034570;28;20043;-76
2022/10/26 13:06:40;;;;;;;18.27;3.42;;;;;;;;;;5014788;28;20069;-76
2022/10/26 13:09:08;;;;;;;20.50;2.97;;;;;;;;;;5032120;28;20037;-76
2022/10/26 13:11:40;;;;;;;14.50;2.25;;;;;;;;;;5025895;28;20822;-76
2022/10/26 13:14:08;;;;;;;17.25;3.67;;;;;;;;;;5029093;28;20025;-76
2022/10/26 13:16:34;;;;;;;13.32;2.55;;;;;;;;;;5032101;28;20068;-76
2022/10/26 13:19:01;;;;;;;16.98;3.10;;;;;;;;;;5030042;28;20029;-76
2022/10/26 13:21:27;;;;;;;17.55;3.28;;;;;;;;;;5034080;28;20037;-76
2022/10/26 13:23:53;;;;;;;12.50;2.75;;;;;;;;;;5035461;28;20025;-76
2022/10/26 13:26:21;;;;;;;18.02;2.70;;;;;;;;;;5028678;28;20041;-76
2022/10/26 13:28:48;;;;;;;14.75;2.67;;;;;;;;;;5027740;28;20064;-76
2022/10/26 13:31:40;;;;;;;18.00;2.85;;;;;;;;;;5018812;28;20041;-76
2022/10/26 13:34:12;;;;;;;12.85;2.42;;;;;;;;;;5021063;28;20026;-76
2022/10/26 13:36:41;;;;;;;15.02;2.35;;;;;;;;;;5028432;28;20037;-76
2022/10/26 13:39:14;;;;;;;15.60;2.92;;;;;;;;;;5034298;28;20061;-77
2022/10/26 13:41:42;;;;;;;17.98;3.22;;;;;;;;;;5032031;28;20039;-76
2022/10/26 13:44:11;;;;;;;19.15;2.72;;;;;;;;;;5033323;28;20037;-76
2022/10/26 13:46:39;;;;;;;20.55;3.45;;;;;;;;;;5019949;28;20041;-76
2022/10/26 13:49:07;;;;;;;18.42;3.67;;;;;;;;;;5023401;28;20104;-76
2022/10/26 13:51:43;;;;;;;15.43;2.63;;;;;;;;;;5022616;28;20037;-76
2022/10/26 13:54:22;;;;;;;15.32;3.00;;;;;;;;;;5032286;28;20419;-76
2022/10/26 13:56:57;;;;;;;14.07;3.22;;;;;;;;;;5026455;28;20030;-76
2022/10/26 13:59:24;;;;;;;15.85;2.88;;;;;;;;;;5031425;28;20033;-76
2022/10/26 14:02:26;;;;;;;17.27;3.53;;;;;;;;;;5035988;28;20037;-76
2022/10/26 14:04:53;;;;;;;20.77;3.37;;;;;;;;;;4974167;28;20042;-76
2022/10/26 14:07:22;;;;;;;17.23;3.40;;;;;;;;;;5019236;28;20052;-76
2022/10/26 14:09:57;;;;;;;20.23;3.88;;;;;;;;;;5021163;28;20748;-76
2022/10/26 14:12:27;;;;;;;14.30;2.65;;;;;;;;;;5027336;28;20025;-76
2022/10/26 14:14:53;;;;;;;13.30;1.98;;;;;;;;;;5028040;28;20473;-76
2022/10/26 14:17:20;;;;;;;17.25;4.20;;;;;;;;;;5033544;28;20672;-77
2022/10/26 14:19:47;;;;;;;12.75;2.53;;;;;;;;;;5033098;28;20822;-76
2022/10/26 14:22:21;;;;;;;15.35;3.00;;;;;;;;;;5026733;28;20041;-77
2022/10/26 14:24:52;;;;;;;13.98;2.55;;;;;;;;;;5028556;28;20033;-76
2022/10/26 14:27:20;;;;;;;12.43;2.40;;;;;;;;;;5018474;28;20547;-76
2022/10/26 14:29:46;;;;;;;17.33;2.97;;;;;;;;;;5020586;28;20220;-76
2022/10/26 14:32:22;;;;;;;16.17;2.58;;;;;;;;;;5026311;28;20037;-76
2022/10/26 14:34:48;;;;;;;11.32;2.42;;;;;;;;;;5025543;28;20794;-77
2022/10/26 14:37:21;;;;;;;21.20;3.00;;;;;;;;;;5035656;28;20586;-76
2022/10/26 14:39:48;;;;;;;19.65;3.03;;;;;;;;;;5022620;28;20036;-76
2022/10/26 14:42:26;;;;;;;13.48;2.50;;;;;;;;;;5023257;28;20060;-77